world map with KAN marked

KAN - Airport

This information may not be accurate or current and is not valid for navigation or flight planning. No warranty of fitness for any purpose is made or implied.

flag of Nigeria

Donate via PayPal

Additional information is available on the NEW Great Circle Mapper

Location
City:  Kano, Kano, Nigeria
Name:Mallam Aminu Kano International Airport
ICAO / IATA:DNKN / KAN

Details
Type:Airport (Aerodrome, Airfield)
Use:Public/Civil, Military
Latitude:12°02'51"N (12.047589)
Longitude:8°31'29"E (8.524622)
Datum:WGS 1984
Elevation:1562 ft (476 m)
Runways:2
Longest:10831 × 197 ft (3301 × 60 m)

Time
Timezone:UTC+1 (DST+3)
Local Time:

Weather
METAR:DNKN  170300Z 05004KT 7000 NSC 14/10 Q1016 NOSIG
TAF:DNKN  162150Z 1700/1806 08004KT 7000 NSW NSC TEMPO 1706/1712 06015KT 3000 HZ

Related Locations
Nearby:
Farthest:AAU: 12309 mi / 19810 km
Asau, WS

Find:

   beyond  
but within

Other Information
Maps:
Sources:

  


 


Great Circle Mapper   Great Circle Mapper
Great Circle Mapper FAQ   Great Circle Mapper FAQ
  Karl's Home Page
KLSē   KLSē Home
   GC on Facebook
Airlines of the World   Airlines of the World
Donate via PayPal


Copyright © 2004-2018, Karl L. Swartz. All rights reserved.
All trademarks mentioned herein belong to their respective owners.

Please see credits for attribution and copyright information.

Karl Swartz <karl@kls2.com>
  Powered by FreeBSD
Valid HTML 4.01!
Labeled with ICRA
hCard Microformat
Geo Microformat